Time;durP1;ratioP1;P1;durP2;ratioP2;P2;SDS_P1;SDS_P2;PMS_P1;PMS_P2;Temp;Humidity;BMP_temperature;BMP_pressure;BME280_temperature;BME280_humidity;BME280_pressure;Samples;Min_cycle;Max_cycle;Signal;HPM_P1;HPM_P2
2022/09/26 00:01:09;;;;;;;;;7.75;7.00;;;;;;;;5106484;27;46481;-75
2022/09/26 00:03:35;;;;;;;;;8.00;5.00;;;;;;;;5102382;27;45478;-75
2022/09/26 00:06:01;;;;;;;;;7.50;7.00;;;;;;;;5099993;27;45414;-74
2022/09/26 00:08:27;;;;;;;;;7.00;6.00;;;;;;;;5109506;27;45481;-75
2022/09/26 00:10:57;;;;;;;;;5.00;4.00;;;;;;;;5120277;27;46335;-74
2022/09/26 00:13:22;;;;;;;;;4.75;4.75;;;;;;;;5108579;27;45381;-74
2022/09/26 00:15:47;;;;;;;;;5.75;3.50;;;;;;;;5100086;27;45588;-74
2022/09/26 00:18:12;;;;;;;;;6.75;5.25;;;;;;;;5100204;27;45514;-76
2022/09/26 00:20:38;;;;;;;;;3.00;3.00;;;;;;;;5100016;27;46194;-75
2022/09/26 00:23:03;;;;;;;;;6.67;5.00;;;;;;;;5099784;27;45369;-74
2022/09/26 00:25:28;;;;;;;;;3.25;3.00;;;;;;;;5110056;27;45420;-74
2022/09/26 00:27:53;;;;;;;;;7.00;6.00;;;;;;;;5120695;27;45613;-73
2022/09/26 00:30:18;;;;;;;;;6.00;6.00;;;;;;;;5120216;27;45449;-74
2022/09/26 00:32:44;;;;;;;;;5.75;3.75;;;;;;;;5118798;27;45366;-73
2022/09/26 00:35:09;;;;;;;;;3.50;3.25;;;;;;;;5099972;27;45315;-74
2022/09/26 00:37:34;;;;;;;;;6.00;5.00;;;;;;;;5107652;27;45363;-74
2022/09/26 00:39:59;;;;;;;;;7.25;5.75;;;;;;;;5105377;27;46777;-74
2022/09/26 00:42:25;;;;;;;;;7.00;4.00;;;;;;;;5099152;27;45462;-76
2022/09/26 00:44:55;;;;;;;;;4.75;3.75;;;;;;;;5099779;27;45450;-75
2022/09/26 00:47:23;;;;;;;;;5.50;4.00;;;;;;;;5101642;27;45480;-75
2022/09/26 00:49:51;;;;;;;;;3.25;2.50;;;;;;;;5100502;27;46750;-73
2022/09/26 00:52:19;;;;;;;;;6.75;4.25;;;;;;;;5099313;27;45393;-75
2022/09/26 00:54:46;;;;;;;;;7.00;4.00;;;;;;;;5103137;27;45382;-74
2022/09/26 00:57:15;;;;;;;;;6.00;3.00;;;;;;;;5120306;27;45400;-76
2022/09/26 00:59:47;;;;;;;;;2.50;2.50;;;;;;;;5119612;27;46492;-75
2022/09/26 01:02:13;;;;;;;;;0.25;0.25;;;;;;;;5100184;27;45552;-75
2022/09/26 01:04:40;;;;;;;;;3.00;3.00;;;;;;;;5103277;27;45297;-74
2022/09/26 01:07:07;;;;;;;;;5.00;2.00;;;;;;;;5099536;27;45390;-74
2022/09/26 01:09:32;;;;;;;;;4.00;4.00;;;;;;;;5099002;27;46929;-74
2022/09/26 01:12:00;;;;;;;;;3.00;3.00;;;;;;;;5098942;27;45380;-76
2022/09/26 01:14:26;;;;;;;;;5.25;2.00;;;;;;;;5102754;27;45579;-74
2022/09/26 01:16:51;;;;;;;;;2.25;2.25;;;;;;;;5111806;27;45666;-74
2022/09/26 01:19:16;;;;;;;;;2.75;2.75;;;;;;;;5097682;27;46557;-74
2022/09/26 01:22:01;;;;;;;;;2.00;2.00;;;;;;;;5098975;27;45331;-74
2022/09/26 01:24:44;;;;;;;;;2.25;2.25;;;;;;;;5098977;27;45241;-73
2022/09/26 01:27:09;;;;;;;;;3.00;3.00;;;;;;;;5102884;27;45322;-74
2022/09/26 01:29:38;;;;;;;;;2.00;2.00;;;;;;;;5098805;27;46586;-76
2022/09/26 01:35:10;;;;;;;;;5.00;3.50;;;;;;;;5104695;27;45369;-74
2022/09/26 01:37:46;;;;;;;;;5.00;2.00;;;;;;;;5119626;27;45332;-75
2022/09/26 01:40:26;;;;;;;;;7.25;4.00;;;;;;;;5119136;27;47402;-74
2022/09/26 01:43:04;;;;;;;;;4.25;4.00;;;;;;;;5119580;27;45372;-74
2022/09/26 01:45:37;;;;;;;;;3.25;2.00;;;;;;;;5118236;27;45495;-74
2022/09/26 01:48:05;;;;;;;;;4.00;3.00;;;;;;;;5116759;27;45780;-75
2022/09/26 01:50:37;;;;;;;;;4.50;4.00;;;;;;;;5118936;27;46855;-75
2022/09/26 01:53:06;;;;;;;;;4.00;3.00;;;;;;;;5118676;27;45294;-74
2022/09/26 01:55:36;;;;;;;;;2.75;2.75;;;;;;;;5117983;27;45452;-76
2022/09/26 01:58:11;;;;;;;;;3.50;3.00;;;;;;;;5119246;27;45420;-76
2022/09/26 02:00:38;;;;;;;;;3.00;3.00;;;;;;;;5113841;27;47487;-77
2022/09/26 02:03:05;;;;;;;;;3.75;2.00;;;;;;;;5102728;27;45535;-77
2022/09/26 02:05:32;;;;;;;;;2.50;0.00;;;;;;;;5098155;27;45559;-77
2022/09/26 02:07:57;;;;;;;;;2.75;2.75;;;;;;;;5098645;27;45493;-75
2022/09/26 02:10:32;;;;;;;;;3.00;2.00;;;;;;;;5097639;27;46573;-73
2022/09/26 02:13:01;;;;;;;;;5.00;4.00;;;;;;;;5098027;27;45271;-74
2022/09/26 02:15:30;;;;;;;;;2.75;1.00;;;;;;;;5097867;27;45252;-73
2022/09/26 02:18:00;;;;;;;;;3.75;3.75;;;;;;;;5098256;27;45333;-75
2022/09/26 02:20:30;;;;;;;;;5.00;2.00;;;;;;;;5097823;27;46245;-76
2022/09/26 02:22:56;;;;;;;;;7.25;3.00;;;;;;;;5097075;27;46879;-76
2022/09/26 02:25:21;;;;;;;;;1.25;1.25;;;;;;;;5103607;27;45522;-75
2022/09/26 02:27:47;;;;;;;;;2.00;1.75;;;;;;;;5098466;27;45221;-76
2022/09/26 02:30:12;;;;;;;;;2.50;2.00;;;;;;;;5097668;27;46353;-75
2022/09/26 02:32:39;;;;;;;;;4.25;3.00;;;;;;;;5097800;27;45341;-75
2022/09/26 02:37:48;;;;;;;;;2.00;2.00;;;;;;;;5098343;27;46058;-75
2022/09/26 02:40:14;;;;;;;;;2.50;2.00;;;;;;;;5102364;27;46326;-75
2022/09/26 02:42:45;;;;;;;;;1.00;1.00;;;;;;;;5101371;27;45175;-75
2022/09/26 02:45:20;;;;;;;;;2.25;2.25;;;;;;;;5098842;27;45441;-75
2022/09/26 02:47:46;;;;;;;;;1.75;1.75;;;;;;;;5115981;27;45375;-75
2022/09/26 02:50:11;;;;;;;;;1.00;1.00;;;;;;;;5107835;27;47410;-75
2022/09/26 02:52:39;;;;;;;;;1.50;1.50;;;;;;;;5110081;27;45461;-76
2022/09/26 02:55:20;;;;;;;;;1.00;1.00;;;;;;;;5118229;27;45460;-75
2022/09/26 02:57:48;;;;;;;;;1.00;1.00;;;;;;;;5118447;27;45508;-75
2022/09/26 03:00:17;;;;;;;;;1.00;1.00;;;;;;;;5118138;27;46672;-73
2022/09/26 03:02:49;;;;;;;;;2.00;2.00;;;;;;;;5118153;27;45304;-76
2022/09/26 03:05:17;;;;;;;;;1.00;1.00;;;;;;;;5115826;27;45561;-76
2022/09/26 03:07:51;;;;;;;;;2.00;2.00;;;;;;;;5107435;27;46929;-74
2022/09/26 03:10:17;;;;;;;;;1.25;1.25;;;;;;;;5120672;27;46533;-75
2022/09/26 03:12:43;;;;;;;;;2.50;1.00;;;;;;;;5121617;27;45328;-74
2022/09/26 03:15:09;;;;;;;;;3.75;2.25;;;;;;;;5121882;27;45416;-72
2022/09/26 03:17:36;;;;;;;;;3.00;2.00;;;;;;;;5101523;27;45316;-75
2022/09/26 03:20:20;;;;;;;;;1.50;1.00;;;;;;;;5100941;27;46689;-74
2022/09/26 03:22:46;;;;;;;;;1.00;1.00;;;;;;;;5100886;27;45400;-76
2022/09/26 03:25:15;;;;;;;;;1.00;1.00;;;;;;;;5100882;27;45484;-74
2022/09/26 03:27:42;;;;;;;;;0.50;0.50;;;;;;;;5116653;27;45214;-72
2022/09/26 03:30:08;;;;;;;;;1.00;1.00;;;;;;;;5120926;27;45523;-76
2022/09/26 03:32:33;;;;;;;;;1.00;1.00;;;;;;;;5121382;27;45357;-76
2022/09/26 03:34:59;;;;;;;;;2.00;0.75;;;;;;;;5121542;27;45361;-76
2022/09/26 03:37:24;;;;;;;;;1.75;1.50;;;;;;;;5120906;27;45248;-76
2022/09/26 03:39:49;;;;;;;;;2.50;1.00;;;;;;;;5120948;27;46832;-76
2022/09/26 03:42:15;;;;;;;;;2.00;1.00;;;;;;;;5118349;27;45339;-74
2022/09/26 03:44:42;;;;;;;;;2.00;2.00;;;;;;;;5112788;27;45301;-75
2022/09/26 03:47:08;;;;;;;;;20.00;16.67;;;;;;;;5104308;27;45477;-75
2022/09/26 03:49:34;;;;;;;;;3.75;2.00;;;;;;;;5111554;27;46658;-76
2022/09/26 03:51:59;;;;;;;;;2.00;2.00;;;;;;;;5119672;27;45354;-74
2022/09/26 03:54:24;;;;;;;;;1.75;1.75;;;;;;;;5120889;27;45396;-76
2022/09/26 03:56:49;;;;;;;;;3.00;1.50;;;;;;;;5120396;27;45235;-75
2022/09/26 03:59:15;;;;;;;;;2.25;2.00;;;;;;;;5120937;27;45483;-75
2022/09/26 04:01:40;;;;;;;;;2.00;2.00;;;;;;;;5120798;27;45432;-73
2022/09/26 04:04:05;;;;;;;;;4.75;3.00;;;;;;;;5120918;27;45370;-73
2022/09/26 04:06:31;;;;;;;;;1.00;1.00;;;;;;;;5121091;27;45350;-74
2022/09/26 04:08:56;;;;;;;;;2.00;2.00;;;;;;;;5120626;27;46253;-75
2022/09/26 04:11:23;;;;;;;;;3.00;3.00;;;;;;;;5111295;27;45371;-75
2022/09/26 04:13:49;;;;;;;;;3.00;1.00;;;;;;;;5099970;27;45785;-75
2022/09/26 04:16:14;;;;;;;;;3.50;2.50;;;;;;;;5108297;27;45529;-76
2022/09/26 04:18:39;;;;;;;;;2.50;1.50;;;;;;;;5099493;27;46250;-75
2022/09/26 04:21:06;;;;;;;;;1.00;1.00;;;;;;;;5099969;27;45400;-75
2022/09/26 04:23:32;;;;;;;;;1.00;1.00;;;;;;;;5100270;27;45303;-75
2022/09/26 04:26:04;;;;;;;;;2.50;1.00;;;;;;;;5101747;27;45296;-77
2022/09/26 04:28:29;;;;;;;;;3.00;2.00;;;;;;;;5116806;27;46342;-77
2022/09/26 04:30:59;;;;;;;;;3.75;2.00;;;;;;;;5120557;27;45484;-78
2022/09/26 04:33:24;;;;;;;;;2.00;2.00;;;;;;;;5104960;27;45413;-78
2022/09/26 04:35:49;;;;;;;;;2.00;2.00;;;;;;;;5099761;27;45612;-76
2022/09/26 04:38:17;;;;;;;;;1.50;1.50;;;;;;;;5099627;27;46396;-76
2022/09/26 04:40:42;;;;;;;;;4.25;2.25;;;;;;;;5099360;27;45501;-75
2022/09/26 04:43:07;;;;;;;;;4.00;4.00;;;;;;;;5120268;27;45382;-75
2022/09/26 04:45:32;;;;;;;;;3.25;2.75;;;;;;;;5118639;27;45290;-76
2022/09/26 04:47:58;;;;;;;;;2.00;2.00;;;;;;;;5103836;27;46641;-76
2022/09/26 04:50:23;;;;;;;;;2.25;1.75;;;;;;;;5099387;27;45437;-75
2022/09/26 04:52:48;;;;;;;;;1.00;1.00;;;;;;;;5099301;27;45520;-77
2022/09/26 04:55:13;;;;;;;;;1.00;1.00;;;;;;;;5102316;27;45339;-78
2022/09/26 04:57:39;;;;;;;;;2.00;2.00;;;;;;;;5100125;27;45577;-75
2022/09/26 05:00:06;;;;;;;;;2.00;2.00;;;;;;;;5106577;27;45500;-77
2022/09/26 05:02:31;;;;;;;;;3.00;1.25;;;;;;;;5111264;27;45514;-74
2022/09/26 05:04:58;;;;;;;;;2.00;2.00;;;;;;;;5116512;27;45399;-77
2022/09/26 05:07:24;;;;;;;;;2.50;1.75;;;;;;;;5117815;27;47139;-76
2022/09/26 05:09:49;;;;;;;;;1.00;1.00;;;;;;;;5118968;27;45212;-77
2022/09/26 05:12:16;;;;;;;;;3.00;1.00;;;;;;;;5100588;27;45497;-76
2022/09/26 05:14:43;;;;;;;;;2.75;2.00;;;;;;;;5099009;27;45287;-77
2022/09/26 05:17:08;;;;;;;;;3.75;1.75;;;;;;;;5098616;27;45786;-76
2022/09/26 05:19:34;;;;;;;;;2.00;2.00;;;;;;;;5098979;27;45351;-75
2022/09/26 05:21:59;;;;;;;;;1.00;1.00;;;;;;;;5099083;27;45280;-76
2022/09/26 05:27:08;;;;;;;;;1.00;1.00;;;;;;;;5098749;27;45424;-77
2022/09/26 05:29:33;;;;;;;;;3.00;2.25;;;;;;;;5104718;27;45366;-76
2022/09/26 05:32:00;;;;;;;;;3.00;2.25;;;;;;;;5102589;27;45463;-76
2022/09/26 05:34:25;;;;;;;;;2.00;2.00;;;;;;;;5099029;27;45502;-77
2022/09/26 05:36:51;;;;;;;;;3.00;1.00;;;;;;;;5111005;27;46287;-76
2022/09/26 05:42:00;;;;;;;;;4.25;3.00;;;;;;;;5098598;27;45359;-77
2022/09/26 05:44:26;;;;;;;;;2.50;2.50;;;;;;;;5098775;27;45456;-77
2022/09/26 05:46:51;;;;;;;;;2.75;2.75;;;;;;;;5106854;27;47139;-78
2022/09/26 05:49:16;;;;;;;;;2.00;2.00;;;;;;;;5098409;27;45508;-77
2022/09/26 05:51:42;;;;;;;;;1.00;1.00;;;;;;;;5098556;27;45732;-76
2022/09/26 05:54:07;;;;;;;;;2.75;2.00;;;;;;;;5098979;27;45306;-76
2022/09/26 05:56:36;;;;;;;;;5.00;3.00;;;;;;;;5109412;27;46532;-78
2022/09/26 05:59:01;;;;;;;;;4.00;2.25;;;;;;;;5118913;27;45466;-75
2022/09/26 06:01:27;;;;;;;;;6.75;6.75;;;;;;;;5112855;27;45575;-76
2022/09/26 06:03:52;;;;;;;;;2.50;1.50;;;;;;;;5110463;27;45463;-76
2022/09/26 06:06:18;;;;;;;;;3.25;3.00;;;;;;;;5111688;27;46398;-76
2022/09/26 06:08:44;;;;;;;;;5.00;2.50;;;;;;;;5118704;27;45371;-76
2022/09/26 06:11:13;;;;;;;;;3.00;3.00;;;;;;;;5114747;27;45429;-76
2022/09/26 06:13:40;;;;;;;;;3.75;3.00;;;;;;;;5115483;27;45424;-77
2022/09/26 06:16:06;;;;;;;;;6.00;5.25;;;;;;;;5097961;27;47319;-76
2022/09/26 06:18:32;;;;;;;;;3.00;3.00;;;;;;;;5097903;27;45398;-77
2022/09/26 06:21:02;;;;;;;;;4.00;2.00;;;;;;;;5098197;27;45271;-77
2022/09/26 06:23:27;;;;;;;;;4.75;4.75;;;;;;;;5098341;27;45309;-74
2022/09/26 06:25:52;;;;;;;;;5.25;3.75;;;;;;;;5097833;27;45494;-74
2022/09/26 06:28:18;;;;;;;;;4.50;4.00;;;;;;;;5098060;27;45342;-72
2022/09/26 06:30:43;;;;;;;;;4.25;2.75;;;;;;;;5097705;27;45263;-76
2022/09/26 06:33:08;;;;;;;;;9.67;9.00;;;;;;;;5097999;27;45133;-75
2022/09/26 06:35:33;;;;;;;;;1.50;1.50;;;;;;;;5097525;27;45546;-76
2022/09/26 06:37:59;;;;;;;;;2.00;1.00;;;;;;;;5106154;27;46915;-73
2022/09/26 06:40:24;;;;;;;;;4.75;4.50;;;;;;;;5109037;27;45588;-75
2022/09/26 06:42:49;;;;;;;;;4.00;3.00;;;;;;;;5115969;27;45568;-75
2022/09/26 06:45:14;;;;;;;;;1.00;1.00;;;;;;;;5121607;27;46128;-75
2022/09/26 06:47:40;;;;;;;;;5.00;2.00;;;;;;;;5121834;27;45348;-76
2022/09/26 06:50:05;;;;;;;;;4.25;2.25;;;;;;;;5121993;27;45373;-73
2022/09/26 06:52:33;;;;;;;;;3.00;2.00;;;;;;;;5122021;27;45228;-76
2022/09/26 06:55:02;;;;;;;;;0.00;0.00;;;;;;;;5119405;27;46113;-76
2022/09/26 06:57:28;;;;;;;;;3.50;2.00;;;;;;;;5120659;27;45509;-76
2022/09/26 06:59:54;;;;;;;;;2.75;2.00;;;;;;;;5123605;27;45555;-75
2022/09/26 07:02:19;;;;;;;;;2.50;2.50;;;;;;;;5129187;27;45198;-75
2022/09/26 07:04:45;;;;;;;;;3.25;1.75;;;;;;;;5121300;27;45352;-75
2022/09/26 07:07:10;;;;;;;;;2.75;2.75;;;;;;;;5121698;27;45310;-75
2022/09/26 07:09:35;;;;;;;;;3.00;1.00;;;;;;;;5121420;27;45349;-75
2022/09/26 07:12:00;;;;;;;;;2.25;2.00;;;;;;;;5121542;27;45272;-75
2022/09/26 07:14:26;;;;;;;;;3.00;3.00;;;;;;;;5121307;27;46190;-75
2022/09/26 07:16:52;;;;;;;;;5.00;2.00;;;;;;;;5121345;27;46337;-74
2022/09/26 07:19:18;;;;;;;;;4.25;3.00;;;;;;;;5121140;27;45593;-76
2022/09/26 07:21:43;;;;;;;;;2.00;2.00;;;;;;;;5121551;27;45433;-76
2022/09/26 07:24:12;;;;;;;;;3.75;2.75;;;;;;;;5121017;27;47507;-77
2022/09/26 07:26:38;;;;;;;;;3.00;2.00;;;;;;;;5121079;27;45575;-75
2022/09/26 07:29:03;;;;;;;;;1.00;1.00;;;;;;;;5121088;27;45392;-74
2022/09/26 07:31:29;;;;;;;;;4.75;3.00;;;;;;;;5121205;27;45523;-75
2022/09/26 07:33:54;;;;;;;;;1.00;1.00;;;;;;;;5121093;27;46476;-76
2022/09/26 07:36:20;;;;;;;;;2.25;2.00;;;;;;;;5121070;27;45402;-76
2022/09/26 07:38:48;;;;;;;;;3.00;3.00;;;;;;;;5120789;27;45312;-76
2022/09/26 07:41:14;;;;;;;;;2.00;1.00;;;;;;;;5121154;27;45426;-75
2022/09/26 07:43:39;;;;;;;;;3.00;1.50;;;;;;;;5120495;27;46561;-74
2022/09/26 07:51:32;;;;;;;;;2.50;0.75;;;;;;;;5119790;27;45384;-75
2022/09/26 07:53:57;;;;;;;;;1.00;1.00;;;;;;;;5120590;27;46533;-75
2022/09/26 07:56:22;;;;;;;;;2.25;1.00;;;;;;;;5120837;27;45418;-76
2022/09/26 07:58:49;;;;;;;;;2.00;2.00;;;;;;;;5120636;27;45350;-75
2022/09/26 08:01:15;;;;;;;;;3.25;1.00;;;;;;;;5120773;27;45525;-75
2022/09/26 08:03:41;;;;;;;;;5.00;2.00;;;;;;;;5120379;27;46398;-75
2022/09/26 08:06:07;;;;;;;;;2.00;2.00;;;;;;;;5120511;27;45365;-75
2022/09/26 08:08:33;;;;;;;;;2.00;2.00;;;;;;;;5120860;27;45302;-75
2022/09/26 08:10:58;;;;;;;;;5.00;1.75;;;;;;;;5120525;27;45325;-74
2022/09/26 08:13:25;;;;;;;;;3.50;2.00;;;;;;;;5119959;27;46286;-74
2022/09/26 08:15:51;;;;;;;;;2.00;2.00;;;;;;;;5120367;27;45409;-74
2022/09/26 08:18:16;;;;;;;;;2.00;2.00;;;;;;;;5120373;27;45506;-75
2022/09/26 08:20:46;;;;;;;;;1.25;1.25;;;;;;;;5120643;27;45505;-76
2022/09/26 08:23:11;;;;;;;;;2.00;1.00;;;;;;;;5120004;27;47486;-75
2022/09/26 08:25:36;;;;;;;;;2.00;2.00;;;;;;;;5120060;27;45325;-74
2022/09/26 08:28:04;;;;;;;;;4.50;2.00;;;;;;;;5120313;27;45588;-75
2022/09/26 08:30:30;;;;;;;;;3.50;2.50;;;;;;;;5120447;27;45566;-74
2022/09/26 08:32:59;;;;;;;;;7.50;2.00;;;;;;;;5120250;27;46195;-76
2022/09/26 08:35:25;;;;;;;;;2.00;2.00;;;;;;;;5119988;27;45321;-75
2022/09/26 08:37:50;;;;;;;;;4.25;2.75;;;;;;;;5136947;27;45678;-75
2022/09/26 08:40:16;;;;;;;;;1.00;1.00;;;;;;;;5141072;27;45627;-76
2022/09/26 08:42:56;;;;;;;;;2.25;2.25;;;;;;;;5140560;27;46615;-76
2022/09/26 08:48:13;;;;;;;;;4.25;4.25;;;;;;;;5140771;27;45322;-73
2022/09/26 08:50:44;;;;;;;;;1.50;1.25;;;;;;;;5140951;27;45422;-75
2022/09/26 08:53:14;;;;;;;;;2.00;2.00;;;;;;;;5140351;27;47158;-75
2022/09/26 08:55:40;;;;;;;;;3.00;1.00;;;;;;;;5140450;27;45301;-74
2022/09/26 08:58:08;;;;;;;;;2.00;2.00;;;;;;;;5140335;27;45360;-75
2022/09/26 09:00:36;;;;;;;;;2.00;1.00;;;;;;;;5140668;27;45335;-74
2022/09/26 09:03:05;;;;;;;;;3.00;3.00;;;;;;;;5139923;27;47196;-74
2022/09/26 09:05:33;;;;;;;;;2.00;2.00;;;;;;;;5140046;27;45334;-74
2022/09/26 09:08:00;;;;;;;;;5.00;4.75;;;;;;;;5140352;27;45283;-73
2022/09/26 09:10:43;;;;;;;;;4.75;4.75;;;;;;;;5140149;27;45724;-75
2022/09/26 09:13:24;;;;;;;;;4.00;2.00;;;;;;;;5139984;27;47255;-75
2022/09/26 09:16:03;;;;;;;;;2.00;2.00;;;;;;;;5140184;27;45453;-76
2022/09/26 09:18:38;;;;;;;;;2.50;2.50;;;;;;;;5140071;27;45369;-75
2022/09/26 09:21:09;;;;;;;;;3.50;2.75;;;;;;;;5140277;27;45374;-76
2022/09/26 09:23:40;;;;;;;;;3.00;2.00;;;;;;;;5139829;27;47350;-75
2022/09/26 09:26:19;;;;;;;;;3.00;3.00;;;;;;;;5140252;27;45427;-76
2022/09/26 09:29:03;;;;;;;;;7.00;5.00;;;;;;;;5140028;27;45430;-74
2022/09/26 09:31:32;;;;;;;;;4.50;3.25;;;;;;;;5140050;27;45292;-76
2022/09/26 09:33:59;;;;;;;;;2.25;2.25;;;;;;;;5139555;27;46269;-75
2022/09/26 09:36:28;;;;;;;;;10.33;6.00;;;;;;;;5139769;27;45543;-75
2022/09/26 09:38:56;;;;;;;;;4.00;2.75;;;;;;;;5139951;27;45372;-75
2022/09/26 09:41:29;;;;;;;;;2.00;2.00;;;;;;;;5139867;27;45520;-75
2022/09/26 09:43:57;;;;;;;;;10.00;8.67;;;;;;;;5121807;27;45722;-75
2022/09/26 09:46:29;;;;;;;;;1.00;0.00;;;;;;;;5119070;27;45447;-75
2022/09/26 09:49:06;;;;;;;;;2.00;2.00;;;;;;;;5119055;27;45373;-74
2022/09/26 09:51:40;;;;;;;;;2.00;0.00;;;;;;;;5118775;27;45341;-75
2022/09/26 09:54:18;;;;;;;;;2.25;1.00;;;;;;;;5118508;27;46086;-75
2022/09/26 09:56:57;;;;;;;;;3.00;2.00;;;;;;;;5118617;27;45503;-76
2022/09/26 09:59:25;;;;;;;;;3.00;3.00;;;;;;;;5118687;27;45330;-76
2022/09/26 10:01:58;;;;;;;;;4.00;1.00;;;;;;;;5118957;27;45323;-74
2022/09/26 10:04:36;;;;;;;;;2.75;1.00;;;;;;;;5118799;27;46641;-76
2022/09/26 10:07:02;;;;;;;;;2.25;2.00;;;;;;;;5119100;27;45326;-76
2022/09/26 10:09:31;;;;;;;;;3.50;3.50;;;;;;;;5119095;27;45361;-76
2022/09/26 10:11:57;;;;;;;;;2.00;2.00;;;;;;;;5118739;27;45244;-75
2022/09/26 10:14:48;;;;;;;;;3.00;3.00;;;;;;;;5118026;27;45594;-76
2022/09/26 10:17:16;;;;;;;;;2.75;1.50;;;;;;;;5114655;27;45357;-71
2022/09/26 10:19:43;;;;;;;;;2.75;2.00;;;;;;;;5118722;27;45300;-75
2022/09/26 10:22:24;;;;;;;;;1.25;1.25;;;;;;;;5118970;27;45361;-77
2022/09/26 10:24:50;;;;;;;;;3.25;2.00;;;;;;;;5117728;27;46573;-76
2022/09/26 10:27:21;;;;;;;;;1.50;1.50;;;;;;;;5118461;27;45403;-76
2022/09/26 10:29:54;;;;;;;;;3.00;3.00;;;;;;;;5118344;27;45570;-76
2022/09/26 10:32:19;;;;;;;;;2.00;2.00;;;;;;;;5118970;27;45289;-76
2022/09/26 10:35:00;;;;;;;;;3.50;2.75;;;;;;;;5118544;27;46509;-77
2022/09/26 10:37:29;;;;;;;;;2.00;2.00;;;;;;;;5118668;27;45731;-75
2022/09/26 10:42:39;;;;;;;;;4.00;4.00;;;;;;;;5118632;27;45296;-75
2022/09/26 10:45:12;;;;;;;;;2.00;2.00;;;;;;;;5118178;27;46624;-76
2022/09/26 10:47:39;;;;;;;;;3.75;3.00;;;;;;;;5118379;27;45549;-76
2022/09/26 10:50:09;;;;;;;;;4.50;2.75;;;;;;;;5118716;27;45254;-75
2022/09/26 10:52:40;;;;;;;;;2.75;2.25;;;;;;;;5118547;27;45581;-75
2022/09/26 10:55:12;;;;;;;;;4.00;2.50;;;;;;;;5118072;27;45712;-75
2022/09/26 10:57:57;;;;;;;;;3.50;2.25;;;;;;;;5118287;27;45420;-75
2022/09/26 11:00:22;;;;;;;;;3.00;3.00;;;;;;;;5118592;27;45386;-74
2022/09/26 11:02:52;;;;;;;;;2.00;2.00;;;;;;;;5118577;27;45351;-76
2022/09/26 11:08:07;;;;;;;;;6.75;5.00;;;;;;;;5118231;27;45322;-76
2022/09/26 11:10:35;;;;;;;;;8.67;7.67;;;;;;;;5118277;27;45298;-76
2022/09/26 11:13:17;;;;;;;;;4.75;4.75;;;;;;;;5118213;27;45439;-77
2022/09/26 11:15:59;;;;;;;;;3.00;3.00;;;;;;;;5117980;27;46602;-76
2022/09/26 11:18:29;;;;;;;;;2.00;2.00;;;;;;;;5117973;27;45506;-77
2022/09/26 11:21:00;;;;;;;;;4.00;2.00;;;;;;;;5118325;27;45257;-76
2022/09/26 11:23:26;;;;;;;;;3.75;1.50;;;;;;;;5118237;27;45326;-77
2022/09/26 11:25:52;;;;;;;;;26.67;24.33;;;;;;;;5118153;27;46575;-77
2022/09/26 11:28:30;;;;;;;;;6.75;4.00;;;;;;;;5121635;27;45173;-77
2022/09/26 11:30:59;;;;;;;;;3.00;2.25;;;;;;;;5121563;27;45261;-76
2022/09/26 11:33:24;;;;;;;;;2.75;2.00;;;;;;;;5121653;27;45314;-75
2022/09/26 11:35:57;;;;;;;;;2.50;2.50;;;;;;;;5121330;27;45472;-77
2022/09/26 11:38:41;;;;;;;;;2.00;2.00;;;;;;;;5121484;27;45492;-73
2022/09/26 11:41:17;;;;;;;;;3.00;3.00;;;;;;;;5121465;27;45373;-73
2022/09/26 11:43:58;;;;;;;;;4.25;4.25;;;;;;;;5121418;27;45539;-75
2022/09/26 11:46:27;;;;;;;;;4.00;4.00;;;;;;;;5121127;27;46121;-75
2022/09/26 11:49:09;;;;;;;;;3.00;3.00;;;;;;;;5121290;27;45235;-73
2022/09/26 11:51:44;;;;;;;;;2.00;2.00;;;;;;;;5121451;27;45456;-78
2022/09/26 11:54:30;;;;;;;;;3.00;3.00;;;;;;;;5121160;27;45559;-76
2022/09/26 11:57:09;;;;;;;;;3.00;3.00;;;;;;;;5120993;27;46241;-77
2022/09/26 11:59:55;;;;;;;;;3.50;3.50;;;;;;;;5120855;27;45313;-77
2022/09/26 12:02:33;;;;;;;;;2.25;2.25;;;;;;;;5120758;27;45321;-75
2022/09/26 12:05:16;;;;;;;;;3.00;3.00;;;;;;;;5121211;27;45382;-78
2022/09/26 12:07:51;;;;;;;;;4.50;4.50;;;;;;;;5120771;27;45424;-77
2022/09/26 12:10:45;;;;;;;;;4.00;2.75;;;;;;;;5120672;27;45251;-78
2022/09/26 12:13:33;;;;;;;;;2.50;2.50;;;;;;;;5037150;28;45469;-77
2022/09/26 12:16:17;;;;;;;;;3.75;3.75;;;;;;;;5037441;28;45534;-77
2022/09/26 12:18:52;;;;;;;;;3.50;3.50;;;;;;;;5036912;28;46313;-76
2022/09/26 12:21:17;;;;;;;;;3.00;3.00;;;;;;;;5037153;28;45581;-77
2022/09/26 12:23:47;;;;;;;;;3.00;3.00;;;;;;;;5036942;28;45472;-77
2022/09/26 12:26:21;;;;;;;;;4.00;4.00;;;;;;;;5037460;28;45294;-78
2022/09/26 12:29:03;;;;;;;;;6.75;6.75;;;;;;;;5036698;28;46340;-77
2022/09/26 12:31:47;;;;;;;;;6.00;6.00;;;;;;;;5036863;28;45408;-76
2022/09/26 12:34:12;;;;;;;;;7.00;6.67;;;;;;;;5036904;28;45551;-75
2022/09/26 12:37:01;;;;;;;;;7.00;7.00;;;;;;;;5037237;28;45497;-76
2022/09/26 12:39:38;;;;;;;;;5.50;5.00;;;;;;;;4976746;28;46244;-77
2022/09/26 12:42:24;;;;;;;;;11.33;8.00;;;;;;;;4977263;28;45379;-76
2022/09/26 12:44:56;;;;;;;;;7.33;7.33;;;;;;;;4977332;28;45506;-76
2022/09/26 12:47:33;;;;;;;;;7.00;5.00;;;;;;;;4977469;28;45344;-77
2022/09/26 12:50:17;;;;;;;;;4.00;4.00;;;;;;;;5029095;28;46340;-75
2022/09/26 12:53:10;;;;;;;;;7.50;5.75;;;;;;;;5056743;28;45610;-76
2022/09/26 12:55:54;;;;;;;;;3.00;2.75;;;;;;;;5056696;28;45322;-76
2022/09/26 12:58:24;;;;;;;;;4.25;3.00;;;;;;;;5056817;28;45380;-75
2022/09/26 13:01:10;;;;;;;;;6.00;4.25;;;;;;;;5056769;28;45777;-75
2022/09/26 13:03:45;;;;;;;;;15.33;15.33;;;;;;;;5056270;28;45297;-77
2022/09/26 13:06:30;;;;;;;;;13.00;12.67;;;;;;;;5056772;28;45432;-77
2022/09/26 13:08:59;;;;;;;;;5.00;2.25;;;;;;;;5056694;28;45339;-77
2022/09/26 13:11:24;;;;;;;;;5.25;4.00;;;;;;;;5056114;28;47010;-78
2022/09/26 13:13:50;;;;;;;;;3.50;3.50;;;;;;;;5056033;28;45288;-77
2022/09/26 13:16:24;;;;;;;;;3.00;3.00;;;;;;;;5082644;27;45396;-75
2022/09/26 13:18:52;;;;;;;;;1.75;1.75;;;;;;;;5120007;27;45382;-77
2022/09/26 13:21:27;;;;;;;;;1.25;0.50;;;;;;;;5119876;27;45277;-77
2022/09/26 13:23:58;;;;;;;;;6.75;5.50;;;;;;;;5119572;27;45363;-76
2022/09/26 13:26:42;;;;;;;;;5.75;3.00;;;;;;;;5119783;27;45363;-77
2022/09/26 13:29:09;;;;;;;;;4.50;2.50;;;;;;;;5119757;27;45439;-76
2022/09/26 13:31:39;;;;;;;;;4.50;3.00;;;;;;;;5118928;27;46556;-78
2022/09/26 13:34:13;;;;;;;;;8.00;4.75;;;;;;;;5119375;27;45445;-78
2022/09/26 13:36:43;;;;;;;;;6.75;6.75;;;;;;;;5119613;27;45319;-77
2022/09/26 13:39:12;;;;;;;;;2.00;1.75;;;;;;;;5119934;27;45382;-78
2022/09/26 13:41:47;;;;;;;;;10.25;6.00;;;;;;;;5119429;27;47138;-76
2022/09/26 13:44:27;;;;;;;;;6.00;6.00;;;;;;;;5119157;27;45387;-77
2022/09/26 13:47:07;;;;;;;;;5.00;4.75;;;;;;;;5119460;27;45369;-77
2022/09/26 13:49:41;;;;;;;;;11.33;9.33;;;;;;;;5118349;27;45445;-78
2022/09/26 13:52:28;;;;;;;;;9.75;9.25;;;;;;;;5119175;27;47532;-78
2022/09/26 13:54:56;;;;;;;;;7.75;7.75;;;;;;;;5119144;27;45420;-78
2022/09/26 13:57:30;;;;;;;;;6.25;6.25;;;;;;;;5119327;27;45256;-77
2022/09/26 13:59:56;;;;;;;;;4.75;4.75;;;;;;;;5119245;27;45417;-77
2022/09/26 14:02:23;;;;;;;;;6.75;4.50;;;;;;;;5119007;27;46387;-77
2022/09/26 14:04:49;;;;;;;;;7.50;4.25;;;;;;;;5119037;27;45334;-77
2022/09/26 14:10:00;;;;;;;;;6.25;3.50;;;;;;;;5119015;27;45297;-76
2022/09/26 14:12:48;;;;;;;;;9.50;6.75;;;;;;;;5118776;27;47020;-78
2022/09/26 14:15:19;;;;;;;;;9.25;6.75;;;;;;;;5118723;27;45524;-77
2022/09/26 14:17:44;;;;;;;;;5.75;4.75;;;;;;;;5118919;27;45356;-75
2022/09/26 14:20:37;;;;;;;;;6.75;3.75;;;;;;;;5119287;27;45420;-77
2022/09/26 14:23:03;;;;;;;;;6.50;3.75;;;;;;;;5115112;27;46536;-76
2022/09/26 14:25:43;;;;;;;;;4.50;2.75;;;;;;;;5118661;27;45381;-77
2022/09/26 14:28:29;;;;;;;;;3.75;2.00;;;;;;;;5118815;27;45399;-77
2022/09/26 14:31:10;;;;;;;;;13.33;12.67;;;;;;;;5118761;27;45400;-76
2022/09/26 14:33:36;;;;;;;;;4.25;3.75;;;;;;;;5118460;27;46260;-77
2022/09/26 14:36:20;;;;;;;;;4.25;4.00;;;;;;;;5118810;27;45706;-77
2022/09/26 14:38:47;;;;;;;;;4.00;3.00;;;;;;;;5118870;27;45306;-76
2022/09/26 14:41:17;;;;;;;;;4.75;2.75;;;;;;;;5118816;27;45263;-75
2022/09/26 14:43:43;;;;;;;;;4.75;2.75;;;;;;;;5118269;27;46441;-74
2022/09/26 14:46:18;;;;;;;;;10.50;7.25;;;;;;;;5118387;27;45870;-73
2022/09/26 14:48:44;;;;;;;;;4.25;4.25;;;;;;;;5118688;27;45369;-75
2022/09/26 14:51:17;;;;;;;;;4.25;3.25;;;;;;;;5118663;27;45205;-74
2022/09/26 14:53:49;;;;;;;;;11.00;8.00;;;;;;;;5118141;27;47291;-73
2022/09/26 14:56:29;;;;;;;;;4.25;3.00;;;;;;;;5118350;27;45483;-74
2022/09/26 14:59:24;;;;;;;;;5.50;5.00;;;;;;;;5118503;27;45516;-74
2022/09/26 15:01:50;;;;;;;;;6.25;3.25;;;;;;;;5120413;27;45215;-75
2022/09/26 15:04:18;;;;;;;;;11.00;4.00;;;;;;;;5121699;27;46688;-74
2022/09/26 15:06:46;;;;;;;;;10.25;6.00;;;;;;;;5121954;27;45762;-75
2022/09/26 15:09:18;;;;;;;;;11.00;6.00;;;;;;;;5122003;27;45417;-75
2022/09/26 15:11:46;;;;;;;;;16.33;10.33;;;;;;;;5121898;27;45388;-73
2022/09/26 15:14:32;;;;;;;;;9.33;5.67;;;;;;;;5121635;27;45319;-75
2022/09/26 15:16:59;;;;;;;;;10.75;6.75;;;;;;;;5038054;28;45487;-75
2022/09/26 15:19:33;;;;;;;;;9.25;5.25;;;;;;;;5037936;28;45219;-76
2022/09/26 15:22:00;;;;;;;;;2.00;1.25;;;;;;;;5038148;28;45318;-76
2022/09/26 15:24:27;;;;;;;;;8.75;5.00;;;;;;;;5037848;28;46535;-75
2022/09/26 15:26:58;;;;;;;;;17.67;14.67;;;;;;;;5037802;28;45452;-75